Hughes, North Carolina
Current Conditions -  °F | °C
As of 11:35 AM on Friday 19 Dec 2014 (Local Time) from KTNB Reporting Station
Clear Clear  
Wind Chill: 31°   Ceiling: Unl
Heat Index: 39°   Visibility: 10mi
Dew Point: 17°   Wind: 13mph
Humidity: 42%   Direction: 290°WNW
Pressure: 30.11"   Gusts: 16mph
Location:  36.0227°N, 81.9499°W
Report Text: KTNB 191635Z AUTO 29011G14KT 10SM CLR 04/M08 A3011 RMK AO2 T00391081
Loading
Personal Weather Stations






























Interactive Weather Map New forecast layout! Learn more

10-Day Weather Forecast

Advertisements
Track Severe Weather on mobile